createdAt,value
2022-10-02T00:00:12.546Z,95.03
2022-10-02T00:05:12.468Z,95.03
2022-10-02T00:10:12.427Z,95.12
2022-10-02T00:15:12.403Z,95.58
2022-10-02T00:20:12.275Z,95.78
2022-10-02T00:25:12.200Z,95.78
2022-10-02T00:30:12.143Z,95.78
2022-10-02T00:35:12.072Z,95.89
2022-10-02T00:40:12.009Z,95.84
2022-10-02T00:45:11.936Z,95.53
2022-10-02T00:50:11.875Z,95.33
2022-10-02T00:55:11.801Z,95.23
2022-10-02T01:00:11.745Z,95.33
2022-10-02T01:05:11.669Z,95.33
2022-10-02T01:10:11.613Z,95.33
2022-10-02T01:15:11.535Z,95.23
2022-10-02T01:20:11.478Z,95.23
2022-10-02T01:25:11.401Z,95.03
2022-10-02T01:30:11.344Z,95.03
2022-10-02T01:35:11.269Z,94.82
2022-10-02T01:40:11.210Z,94.51
2022-10-02T01:45:11.137Z,94.31
2022-10-02T01:50:11.079Z,94.37
2022-10-02T01:55:11.005Z,94.17
2022-10-02T02:00:10.948Z,94.17
2022-10-02T02:05:10.869Z,93.85
2022-10-02T02:10:10.810Z,93.65
2022-10-02T02:15:10.736Z,93.45
2022-10-02T02:20:10.682Z,93.45
2022-10-02T02:25:10.607Z,93.55
2022-10-02T02:30:10.545Z,93.90
2022-10-02T02:35:10.470Z,94.31
2022-10-02T02:40:10.410Z,94.36
2022-10-02T02:45:10.335Z,94.56
2022-10-02T02:50:10.280Z,94.97
2022-10-02T02:55:10.203Z,95.22
2022-10-02T03:00:10.146Z,95.73
2022-10-02T03:05:10.067Z,95.73
2022-10-02T03:10:09.997Z,95.93
2022-10-02T03:15:09.934Z,96.08
2022-10-02T03:20:09.868Z,96.18
2022-10-02T03:25:09.801Z,96.08
2022-10-02T03:30:09.732Z,95.62
2022-10-02T03:35:09.668Z,95.32
2022-10-02T03:40:09.594Z,95.22
2022-10-02T03:45:09.534Z,95.22
2022-10-02T03:50:09.458Z,95.22
2022-10-02T03:55:09.398Z,95.22
2022-10-02T04:00:09.341Z,95.62
2022-10-02T04:05:09.272Z,95.77
2022-10-02T04:10:09.190Z,95.77
2022-10-02T04:15:09.130Z,95.88
2022-10-02T04:20:09.057Z,95.98
2022-10-02T04:25:08.998Z,95.67
2022-10-02T04:30:08.925Z,95.88
2022-10-02T04:35:08.863Z,96.33
2022-10-02T04:40:08.787Z,96.84
2022-10-02T04:45:08.728Z,97.46
2022-10-02T04:50:08.655Z,97.21
2022-10-02T04:55:08.594Z,97.00
2022-10-02T05:00:08.522Z,96.59
2022-10-02T05:05:08.461Z,96.69
2022-10-02T05:10:08.384Z,96.49
2022-10-02T05:15:08.324Z,96.49
2022-10-02T05:20:08.462Z,96.69
2022-10-02T05:25:08.440Z,96.80
2022-10-02T05:30:08.114Z,96.90
2022-10-02T05:35:08.056Z,96.59
2022-10-02T05:40:07.991Z,96.34
2022-10-02T05:45:07.914Z,95.37
2022-10-02T05:50:07.853Z,93.49
2022-10-02T05:55:07.779Z,91.57
2022-10-02T06:00:07.721Z,89.36
2022-10-02T06:05:07.650Z,86.79
2022-10-02T06:10:07.586Z,83.38
2022-10-02T06:15:07.513Z,83.82
2022-10-02T06:20:07.454Z,82.97
2022-10-02T06:25:07.383Z,85.43
2022-10-02T06:30:07.321Z,86.69
2022-10-02T06:35:07.245Z,87.10
2022-10-02T06:40:07.186Z,81.54
2022-10-02T06:45:07.113Z,77.98
2022-10-02T06:50:07.053Z,76.08
2022-10-02T06:55:06.977Z,78.52
2022-10-02T07:00:06.916Z,79.88
2022-10-02T07:05:06.864Z,77.84
2022-10-02T07:10:06.784Z,78.49
2022-10-02T07:15:06.712Z,76.11
2022-10-02T07:20:06.658Z,71.26
2022-10-02T07:25:06.579Z,69.89
2022-10-02T07:30:06.518Z,72.37
2022-10-02T07:35:06.440Z,66.87
2022-10-02T07:40:06.381Z,65.17
2022-10-02T07:45:06.308Z,66.40
2022-10-02T07:50:06.249Z,67.21
2022-10-02T07:55:06.175Z,67.74
2022-10-02T08:00:06.115Z,64.21
2022-10-02T08:05:06.044Z,68.65
2022-10-02T08:10:05.986Z,70.76
2022-10-02T08:15:05.913Z,72.77
2022-10-02T08:20:05.856Z,74.32
2022-10-02T08:25:05.784Z,74.46
2022-10-02T08:30:05.732Z,76.20
2022-10-02T08:35:05.651Z,76.85
2022-10-02T08:40:05.596Z,78.54
2022-10-02T08:45:05.519Z,80.60
2022-10-02T08:50:05.460Z,82.29
2022-10-02T08:55:05.384Z,85.88
2022-10-02T09:00:05.326Z,88.70
2022-10-02T09:05:05.250Z,90.66
2022-10-02T09:10:05.193Z,91.38
2022-10-02T09:15:05.122Z,91.13
2022-10-02T09:20:05.064Z,91.84
2022-10-02T09:25:04.986Z,92.04
2022-10-02T09:30:04.922Z,92.20
2022-10-02T09:35:04.848Z,90.44
2022-10-02T09:40:04.790Z,90.44
2022-10-02T09:45:04.713Z,90.74
2022-10-02T09:50:04.655Z,91.49
2022-10-02T09:55:04.586Z,91.80
2022-10-02T10:00:04.518Z,91.03
2022-10-02T10:05:06.336Z,90.11
2022-10-02T10:10:04.382Z,88.80
2022-10-02T10:15:08.620Z,87.70
2022-10-02T10:20:04.245Z,85.63
2022-10-02T10:25:04.167Z,84.44
2022-10-02T10:30:04.125Z,82.33
2022-10-02T10:35:04.036Z,80.95
2022-10-02T10:40:03.974Z,81.96
2022-10-02T10:45:03.928Z,83.52
2022-10-02T10:50:03.842Z,84.72
2022-10-02T10:55:03.767Z,82.89
2022-10-02T11:00:03.709Z,80.53
2022-10-02T11:05:03.636Z,77.83
2022-10-02T11:10:03.573Z,77.13
2022-10-02T11:15:03.504Z,75.28
2022-10-02T11:20:03.440Z,75.01
2022-10-02T11:25:03.370Z,74.37
2022-10-02T11:30:03.305Z,75.21
2022-10-02T11:35:03.236Z,75.79
2022-10-02T11:40:03.177Z,76.94
2022-10-02T11:45:03.095Z,76.23
2022-10-02T11:50:03.038Z,76.77
2022-10-02T11:55:02.963Z,79.22
2022-10-02T12:00:02.903Z,79.36
2022-10-02T12:05:02.827Z,80.51
2022-10-02T12:10:02.770Z,81.21
2022-10-02T12:15:02.693Z,82.73
2022-10-02T12:20:02.634Z,83.47
2022-10-02T12:25:02.565Z,86.34
2022-10-02T12:30:02.498Z,83.19
2022-10-02T12:35:02.425Z,86.30
2022-10-02T12:45:14.401Z,87.80
2022-10-02T12:50:14.344Z,89.22
2022-10-02T12:55:14.269Z,89.18
2022-10-02T13:00:14.210Z,89.50
2022-10-02T13:05:14.134Z,88.65
2022-10-02T13:10:14.077Z,88.04
2022-10-02T13:15:14.002Z,87.39
2022-10-02T13:20:13.945Z,85.37
2022-10-02T13:25:13.872Z,83.21
2022-10-02T13:30:13.814Z,82.81
2022-10-02T13:35:13.742Z,82.04
2022-10-02T13:40:13.683Z,81.73
2022-10-02T13:45:13.610Z,80.62
2022-10-02T13:50:17.479Z,80.59
2022-10-02T13:55:13.482Z,81.70
2022-10-02T14:00:13.424Z,82.55
2022-10-02T14:05:13.349Z,83.75
2022-10-02T14:10:13.293Z,84.06
2022-10-02T14:15:13.219Z,84.36
2022-10-02T14:20:13.162Z,83.80
2022-10-02T14:25:13.089Z,84.71
2022-10-02T14:30:13.032Z,82.89
2022-10-02T14:35:13.210Z,81.61
2022-10-02T14:40:12.900Z,81.91
2022-10-02T14:45:12.827Z,80.54
2022-10-02T14:50:12.768Z,80.07
2022-10-02T14:55:12.699Z,80.37
2022-10-02T15:00:12.640Z,80.37
2022-10-02T15:05:12.568Z,80.61
2022-10-02T15:10:12.510Z,81.02
2022-10-02T15:15:12.437Z,80.67
2022-10-02T15:20:12.377Z,83.51
2022-10-02T15:25:15.643Z,81.79
2022-10-02T15:30:12.247Z,80.67
2022-10-02T15:35:12.174Z,79.87
2022-10-02T15:40:12.115Z,80.47
2022-10-02T15:45:12.052Z,80.57
2022-10-02T15:50:11.985Z,81.39
2022-10-02T15:55:14.996Z,82.19
2022-10-02T16:00:11.856Z,84.36
2022-10-02T16:05:11.787Z,85.21
2022-10-02T16:10:11.724Z,85.55
2022-10-02T16:15:11.653Z,86.61
2022-10-02T16:20:11.594Z,87.46
2022-10-02T16:25:11.521Z,88.11
2022-10-02T16:30:11.459Z,88.72
2022-10-02T16:35:11.384Z,89.06
2022-10-02T16:40:11.322Z,89.21
2022-10-02T16:45:11.248Z,89.05
2022-10-02T16:50:11.188Z,89.50
2022-10-02T16:55:11.113Z,89.39
2022-10-02T17:00:11.055Z,89.74
2022-10-02T17:05:10.981Z,89.84
2022-10-02T17:10:12.093Z,90.25
2022-10-02T17:15:10.856Z,90.60
2022-10-02T17:20:10.795Z,91.11
2022-10-02T17:25:10.726Z,91.31
2022-10-02T17:30:10.668Z,91.56
2022-10-02T17:35:10.599Z,91.87
2022-10-02T17:40:10.538Z,92.11
2022-10-02T17:45:10.465Z,92.41
2022-10-02T17:50:10.406Z,92.62
2022-10-02T17:55:10.335Z,92.93
2022-10-02T18:00:10.278Z,93.09
2022-10-02T18:05:10.204Z,93.80
2022-10-02T18:10:10.143Z,94.20
2022-10-02T18:15:10.073Z,94.06
2022-10-02T18:20:10.010Z,93.85
2022-10-02T18:25:09.938Z,93.61
2022-10-02T18:30:09.880Z,93.71
2022-10-02T18:35:09.809Z,93.61
2022-10-02T18:40:09.748Z,93.40
2022-10-02T18:45:09.676Z,93.10
2022-10-02T18:50:09.617Z,92.79
2022-10-02T18:55:09.548Z,92.70
2022-10-02T19:00:09.486Z,92.70
2022-10-02T19:05:09.412Z,92.59
2022-10-02T19:10:09.352Z,92.59
2022-10-02T19:15:09.282Z,92.70
2022-10-02T19:20:09.224Z,92.90
2022-10-02T19:25:09.144Z,92.39
2022-10-02T19:30:09.088Z,92.18
2022-10-02T19:35:09.017Z,91.41
2022-10-02T19:40:13.070Z,91.00
2022-10-02T19:45:08.891Z,90.54
2022-10-02T19:50:08.833Z,90.13
2022-10-02T19:55:09.186Z,90.17
2022-10-02T20:00:08.700Z,90.28
2022-10-02T20:05:08.628Z,90.83
2022-10-02T20:10:08.569Z,90.83
2022-10-02T20:15:08.499Z,90.72
2022-10-02T20:20:08.436Z,90.63
2022-10-02T20:25:08.363Z,90.52
2022-10-02T20:30:08.305Z,90.22
2022-10-02T20:35:08.230Z,90.22
2022-10-02T20:40:08.174Z,90.36
2022-10-02T20:45:08.099Z,90.97
2022-10-02T20:50:08.040Z,91.69
2022-10-02T20:55:07.965Z,91.99
2022-10-02T21:00:07.906Z,91.69
2022-10-02T21:05:07.834Z,91.28
2022-10-02T21:10:07.774Z,91.32
2022-10-02T21:15:07.700Z,91.43
2022-10-02T21:20:07.641Z,91.47
2022-10-02T21:25:07.583Z,91.77
2022-10-02T21:30:07.508Z,92.32
2022-10-02T21:35:07.438Z,92.32
2022-10-02T21:40:07.380Z,92.73
2022-10-02T21:45:07.306Z,92.88
2022-10-02T21:50:07.248Z,93.29
2022-10-02T21:55:07.177Z,93.59
2022-10-02T22:00:07.126Z,93.65
2022-10-02T22:05:07.043Z,94.06
2022-10-02T22:10:06.987Z,94.06
2022-10-02T22:15:06.912Z,94.32
2022-10-02T22:20:06.857Z,94.12
2022-10-02T22:25:06.802Z,93.92
2022-10-02T22:30:06.725Z,93.51
2022-10-02T22:35:06.650Z,93.40
2022-10-02T22:40:06.595Z,93.51
2022-10-02T22:45:06.521Z,93.61
2022-10-02T22:50:06.463Z,93.31
2022-10-02T22:55:06.391Z,93.45
2022-10-02T23:00:06.332Z,93.76
2022-10-02T23:05:06.261Z,94.00
2022-10-02T23:10:06.200Z,94.31
2022-10-02T23:15:06.131Z,94.92
2022-10-02T23:20:06.070Z,95.48
2022-10-02T23:25:05.999Z,95.78
2022-10-02T23:30:05.941Z,96.09
2022-10-02T23:35:05.866Z,96.30
2022-10-02T23:40:05.811Z,96.09
2022-10-02T23:45:05.735Z,96.09
2022-10-02T23:50:05.678Z,96.19
2022-10-02T23:55:05.605Z,96.85
